createdAt,value
2018-12-03T00:01:28.773Z,15.88
2018-12-03T00:04:15.361Z,16.26
2018-12-03T00:06:44.354Z,16.85
2018-12-03T00:09:12.690Z,16.86
2018-12-03T00:11:40.992Z,16.36
2018-12-03T00:14:09.826Z,16.21
2018-12-03T00:16:38.250Z,16.23
2018-12-03T00:19:14.246Z,16.15
2018-12-03T00:21:42.647Z,15.69
2018-12-03T00:24:11.076Z,16.19
2018-12-03T00:26:39.516Z,15.51
2018-12-03T00:29:07.870Z,15.83
2018-12-03T00:31:36.230Z,15.83
2018-12-03T00:34:04.584Z,16.35
2018-12-03T00:36:32.905Z,15.87
2018-12-03T00:39:01.274Z,16.15
2018-12-03T00:41:29.576Z,15.84
2018-12-03T00:43:58.026Z,15.69
2018-12-03T00:46:26.382Z,15.91
2018-12-03T00:48:55.070Z,15.96
2018-12-03T00:51:23.423Z,16.02
2018-12-03T00:53:51.787Z,15.96
2018-12-03T00:56:20.302Z,16.25
2018-12-03T00:58:48.633Z,16.54
2018-12-03T01:01:17.055Z,16.34
2018-12-03T01:03:45.358Z,15.91
2018-12-03T01:06:13.750Z,15.74
2018-12-03T01:08:42.095Z,15.50
2018-12-03T01:11:10.500Z,16.20
2018-12-03T01:13:38.868Z,16.23
2018-12-03T01:16:07.203Z,15.99
2018-12-03T01:18:35.642Z,15.92
2018-12-03T01:21:04.018Z,16.10
2018-12-03T01:23:32.566Z,15.81
2018-12-03T01:26:01.384Z,16.09
2018-12-03T01:28:29.694Z,16.02
2018-12-03T01:30:58.332Z,15.60
2018-12-03T01:33:26.610Z,15.72
2018-12-03T01:35:55.073Z,16.26
2018-12-03T01:38:23.394Z,15.41
2018-12-03T01:40:51.729Z,16.08
2018-12-03T01:43:20.229Z,15.43
2018-12-03T01:45:48.628Z,15.83
2018-12-03T01:48:16.910Z,16.19
2018-12-03T01:50:45.313Z,16.14
2018-12-03T01:53:13.607Z,15.85
2018-12-03T01:55:42.614Z,16.04
2018-12-03T01:58:10.902Z,15.99
2018-12-03T02:00:39.710Z,15.78
2018-12-03T02:03:08.062Z,15.89
2018-12-03T02:05:36.369Z,15.56
2018-12-03T02:08:04.667Z,16.04
2018-12-03T02:10:32.990Z,16.21
2018-12-03T02:13:01.270Z,16.20
2018-12-03T02:15:29.677Z,15.96
2018-12-03T02:17:57.964Z,16.75
2018-12-03T02:20:26.459Z,16.20
2018-12-03T02:22:54.802Z,16.54
2018-12-03T02:25:23.200Z,16.40
2018-12-03T02:27:51.494Z,16.50
2018-12-03T02:30:19.815Z,16.53
2018-12-03T02:32:48.096Z,16.28
2018-12-03T02:35:16.575Z,16.05
2018-12-03T02:37:44.909Z,16.30
2018-12-03T02:40:15.384Z,16.58
2018-12-03T02:42:43.683Z,16.19
2018-12-03T02:45:12.990Z,16.27
2018-12-03T02:47:41.296Z,16.14
2018-12-03T02:50:11.695Z,16.24
2018-12-03T02:52:40.582Z,16.51
2018-12-03T02:55:10.002Z,16.85
2018-12-03T02:57:38.546Z,16.74
2018-12-03T03:00:11.445Z,16.36
2018-12-03T03:02:39.793Z,16.57
2018-12-03T03:05:09.938Z,16.06
2018-12-03T03:07:38.244Z,16.43
2018-12-03T03:10:12.024Z,16.09
2018-12-03T03:12:40.555Z,15.99
2018-12-03T03:15:13.219Z,16.22
2018-12-03T03:17:41.665Z,15.81
2018-12-03T03:20:12.728Z,16.13
2018-12-03T03:22:41.067Z,16.10
2018-12-03T03:25:10.325Z,16.27
2018-12-03T03:27:38.862Z,16.35
2018-12-03T03:30:10.353Z,16.25
2018-12-03T03:32:38.673Z,16.58
2018-12-03T03:35:08.458Z,16.64
2018-12-03T03:37:37.094Z,16.89
2018-12-03T03:40:08.270Z,16.45
2018-12-03T03:42:36.727Z,16.88
2018-12-03T03:45:08.262Z,16.70
2018-12-03T03:47:36.820Z,16.50
2018-12-03T03:50:06.276Z,16.61
2018-12-03T03:52:34.919Z,16.10
2018-12-03T03:55:03.314Z,16.50
2018-12-03T03:57:31.896Z,16.25
2018-12-03T04:00:00.302Z,16.95
2018-12-03T04:02:29.167Z,16.82
2018-12-03T04:04:57.821Z,16.69
2018-12-03T04:07:26.539Z,16.17
2018-12-03T04:09:55.100Z,17.08
2018-12-03T04:12:23.667Z,16.36
2018-12-03T04:14:52.288Z,16.35
2018-12-03T04:17:21.421Z,15.91
2018-12-03T04:19:49.952Z,15.45
2018-12-03T04:22:18.490Z,15.96
2018-12-03T04:24:47.066Z,15.91
2018-12-03T04:27:15.778Z,15.50
2018-12-03T04:29:44.408Z,15.57
2018-12-03T04:32:12.981Z,15.66
2018-12-03T04:34:41.672Z,15.77
2018-12-03T04:37:10.437Z,16.09
2018-12-03T04:39:39.557Z,16.21
2018-12-03T04:42:08.448Z,16.49
2018-12-03T04:44:37.245Z,15.67
2018-12-03T04:47:06.112Z,15.96
2018-12-03T04:49:34.819Z,16.64
2018-12-03T04:52:03.606Z,16.19
2018-12-03T04:54:32.177Z,16.43
2018-12-03T04:57:00.644Z,16.14
2018-12-03T04:59:29.148Z,16.42
2018-12-03T05:01:57.774Z,16.12
2018-12-03T05:04:26.200Z,16.13
2018-12-03T05:06:54.656Z,16.19
2018-12-03T05:09:23.277Z,16.29
2018-12-03T05:11:51.772Z,16.63
2018-12-03T05:14:20.196Z,16.54
2018-12-03T05:16:48.588Z,16.56
2018-12-03T05:19:16.891Z,16.23
2018-12-03T05:21:45.270Z,15.98
2018-12-03T05:24:13.818Z,16.00
2018-12-03T05:26:42.208Z,16.08
2018-12-03T05:29:10.506Z,16.23
2018-12-03T05:31:38.822Z,16.94
2018-12-03T05:34:07.280Z,16.45
2018-12-03T05:36:35.555Z,16.12
2018-12-03T05:39:04.693Z,16.13
2018-12-03T05:41:33.017Z,15.82
2018-12-03T05:44:01.377Z,16.04
2018-12-03T05:46:29.666Z,16.78
2018-12-03T05:48:58.172Z,16.61
2018-12-03T05:51:26.522Z,15.67
2018-12-03T05:53:54.901Z,16.16
2018-12-03T05:56:23.202Z,15.94
2018-12-03T05:58:51.582Z,15.55
2018-12-03T06:01:19.833Z,15.93
2018-12-03T06:03:48.246Z,16.21
2018-12-03T06:06:16.641Z,16.11
2018-12-03T06:08:44.965Z,16.12
2018-12-03T06:11:13.287Z,16.02
2018-12-03T06:13:41.642Z,16.27
2018-12-03T06:16:10.321Z,16.15
2018-12-03T06:18:38.594Z,16.14
2018-12-03T06:21:07.062Z,16.12
2018-12-03T06:23:35.391Z,16.24
2018-12-03T06:26:03.700Z,16.38
2018-12-03T06:28:32.122Z,16.43
2018-12-03T06:31:00.530Z,16.08
2018-12-03T06:33:28.851Z,16.31
2018-12-03T06:35:57.207Z,16.12
2018-12-03T06:38:25.532Z,16.14
2018-12-03T06:40:54.032Z,16.25
2018-12-03T06:43:22.411Z,16.55
2018-12-03T06:45:50.777Z,16.80
2018-12-03T06:48:21.826Z,16.69
2018-12-03T06:50:50.146Z,16.28
2018-12-03T06:53:18.420Z,16.44
2018-12-03T06:55:46.957Z,16.47
2018-12-03T06:58:16.276Z,16.75
2018-12-03T07:00:46.908Z,16.43
2018-12-03T07:03:15.184Z,16.88
2018-12-03T07:05:44.254Z,16.37
2018-12-03T07:08:12.512Z,16.89
2018-12-03T07:10:40.767Z,17.01
2018-12-03T07:13:13.272Z,17.15
2018-12-03T07:15:43.147Z,17.27
2018-12-03T07:18:12.246Z,17.02
2018-12-03T07:20:40.510Z,17.59
2018-12-03T07:23:08.846Z,17.24
2018-12-03T07:25:37.418Z,17.34
2018-12-03T07:28:06.195Z,17.43
2018-12-03T07:30:34.469Z,17.61
2018-12-03T07:33:02.741Z,16.98
2018-12-03T07:35:31.184Z,17.27
2018-12-03T07:37:59.523Z,17.35
2018-12-03T07:40:27.818Z,17.00
2018-12-03T07:42:56.135Z,17.19
2018-12-03T07:45:25.410Z,16.91
2018-12-03T07:47:53.727Z,17.11
2018-12-03T07:50:22.975Z,16.22
2018-12-03T07:52:51.325Z,16.80
2018-12-03T07:55:20.869Z,16.43
2018-12-03T07:57:59.551Z,16.47
2018-12-03T08:00:33.760Z,16.15
2018-12-03T08:03:02.166Z,16.63
2018-12-03T08:05:30.517Z,16.86
2018-12-03T08:07:59.105Z,16.83
2018-12-03T08:10:27.512Z,16.79
2018-12-03T08:12:55.961Z,17.20
2018-12-03T08:15:24.330Z,17.47
2018-12-03T08:17:57.399Z,17.81
2018-12-03T08:20:29.434Z,17.66
2018-12-03T08:23:01.270Z,17.44
2018-12-03T08:25:29.578Z,18.07
2018-12-03T08:27:57.976Z,17.57
2018-12-03T08:30:26.460Z,17.93
2018-12-03T08:32:54.902Z,17.63
2018-12-03T08:35:23.255Z,17.29
2018-12-03T08:37:51.662Z,16.88
2018-12-03T08:40:20.469Z,16.86
2018-12-03T08:42:51.964Z,17.46
2018-12-03T08:45:21.199Z,18.19
2018-12-03T08:47:49.992Z,17.65
2018-12-03T08:50:23.442Z,17.94
2018-12-03T08:52:51.898Z,17.31
2018-12-03T08:55:20.224Z,17.97
2018-12-03T08:57:48.628Z,17.32
2018-12-03T09:00:32.013Z,17.42
2018-12-03T09:03:07.186Z,17.75
2018-12-03T09:05:37.727Z,17.75
2018-12-03T09:08:07.434Z,17.62
2018-12-03T09:10:35.926Z,17.32
2018-12-03T09:13:22.726Z,17.79
2018-12-03T09:16:03.158Z,17.63
2018-12-03T09:18:33.597Z,17.96
2018-12-03T09:21:02.378Z,17.68
2018-12-03T09:23:30.668Z,17.89
2018-12-03T09:25:58.971Z,17.26
2018-12-03T09:28:27.306Z,17.39
2018-12-03T09:30:55.666Z,17.73
2018-12-03T09:33:23.930Z,17.91
2018-12-03T09:35:52.329Z,17.59
2018-12-03T09:38:20.721Z,17.83
2018-12-03T09:40:49.034Z,17.41
2018-12-03T09:43:17.357Z,17.63
2018-12-03T09:45:45.701Z,18.24
2018-12-03T09:48:14.045Z,17.46
2018-12-03T09:50:42.390Z,17.17
2018-12-03T09:53:10.729Z,17.32
2018-12-03T09:55:39.164Z,17.35
2018-12-03T09:58:13.885Z,17.27
2018-12-03T10:00:42.714Z,17.31
2018-12-03T10:03:20.812Z,17.09
2018-12-03T10:05:51.843Z,16.89
2018-12-03T10:08:27.687Z,17.84
2018-12-03T10:10:57.216Z,18.71
2018-12-03T10:13:26.414Z,18.34
2018-12-03T10:15:54.804Z,18.17
2018-12-03T10:18:23.168Z,18.32
2018-12-03T10:20:53.077Z,18.85
2018-12-03T10:23:21.390Z,18.18
2018-12-03T10:25:51.914Z,18.19
2018-12-03T10:28:20.575Z,18.44
2018-12-03T10:30:49.550Z,18.73
2018-12-03T10:33:21.954Z,18.67
2018-12-03T10:35:50.478Z,18.94
2018-12-03T10:38:21.926Z,18.68
2018-12-03T10:41:01.109Z,18.67
2018-12-03T10:43:29.443Z,18.38
2018-12-03T10:45:57.876Z,19.14
2018-12-03T10:48:26.128Z,18.39
2018-12-03T10:50:54.392Z,18.92
2018-12-03T10:53:27.527Z,18.59
2018-12-03T10:55:55.973Z,17.88
2018-12-03T10:58:24.473Z,18.44
2018-12-03T11:01:05.971Z,17.86
2018-12-03T11:03:39.550Z,18.13
2018-12-03T11:06:13.374Z,17.98
2018-12-03T11:08:41.699Z,18.10
2018-12-03T11:11:10.039Z,18.45
2018-12-03T11:13:38.429Z,18.72
2018-12-03T11:16:09.128Z,18.35
2018-12-03T11:18:47.471Z,18.34
2018-12-03T11:21:15.766Z,18.62
2018-12-03T11:23:44.113Z,18.73
2018-12-03T11:26:12.407Z,18.63
2018-12-03T11:28:43.557Z,18.71
2018-12-03T11:31:19.350Z,18.08
2018-12-03T11:33:47.670Z,18.91
2018-12-03T11:36:17.044Z,18.89
2018-12-03T11:39:55.719Z,19.04
2018-12-03T11:42:29.080Z,18.04
2018-12-03T11:44:57.434Z,18.37
2018-12-03T11:47:25.924Z,18.42
2018-12-03T11:49:54.310Z,18.71
2018-12-03T11:52:22.584Z,18.95
2018-12-03T11:54:50.987Z,19.78
2018-12-03T11:57:19.325Z,19.43
2018-12-03T11:59:47.608Z,19.54
2018-12-03T12:02:16.014Z,18.16
2018-12-03T12:04:44.478Z,17.82
2018-12-03T12:07:12.841Z,18.60
2018-12-03T12:09:41.232Z,18.85
2018-12-03T12:12:09.614Z,19.52
2018-12-03T12:14:37.896Z,18.88
2018-12-03T12:17:06.597Z,19.50
2018-12-03T12:19:34.890Z,19.84
2018-12-03T12:22:03.452Z,20.06
2018-12-03T12:24:31.792Z,19.85
2018-12-03T12:27:00.109Z,20.36
2018-12-03T12:29:28.425Z,20.78
2018-12-03T12:31:56.769Z,21.02
2018-12-03T12:34:25.074Z,21.07
2018-12-03T12:36:53.375Z,21.06
2018-12-03T12:39:21.687Z,21.04
2018-12-03T12:41:49.985Z,20.37
2018-12-03T12:44:18.362Z,20.16
2018-12-03T12:46:48.832Z,19.98
2018-12-03T12:49:17.139Z,18.85
2018-12-03T12:51:45.502Z,18.58
2018-12-03T12:54:13.796Z,18.21
2018-12-03T12:56:42.146Z,18.84
2018-12-03T12:59:10.476Z,18.83
2018-12-03T13:01:38.857Z,19.15
2018-12-03T13:04:07.794Z,18.35
2018-12-03T13:06:36.223Z,18.65
2018-12-03T13:09:07.326Z,18.32
2018-12-03T13:11:35.780Z,18.26
2018-12-03T13:14:04.209Z,18.00
2018-12-03T13:16:32.463Z,17.69
2018-12-03T13:19:00.714Z,17.27
2018-12-03T13:21:29.139Z,16.84
2018-12-03T13:23:57.428Z,16.36
2018-12-03T13:26:25.903Z,16.19
2018-12-03T13:28:54.230Z,17.41
2018-12-03T13:31:22.560Z,16.81
2018-12-03T13:33:50.892Z,16.77
2018-12-03T13:36:19.392Z,17.10
2018-12-03T13:38:47.757Z,16.94
2018-12-03T13:41:16.034Z,16.94
2018-12-03T13:43:44.469Z,17.74
2018-12-03T13:46:12.799Z,17.34
2018-12-03T13:48:41.294Z,17.60
2018-12-03T13:51:09.611Z,17.34
2018-12-03T13:53:38.020Z,17.20
2018-12-03T13:56:06.534Z,17.28
2018-12-03T13:58:34.871Z,17.40
2018-12-03T14:01:03.380Z,17.29
2018-12-03T14:03:34.227Z,17.52
2018-12-03T14:06:13.992Z,17.50
2018-12-03T14:09:28.672Z,17.49
2018-12-03T14:12:07.779Z,17.27
2018-12-03T14:15:16.827Z,17.59
2018-12-03T14:17:49.833Z,17.85
2018-12-03T14:20:19.428Z,17.43
2018-12-03T14:22:54.599Z,17.94
2018-12-03T14:25:23.078Z,17.33
2018-12-03T14:27:51.408Z,17.68
2018-12-03T14:30:19.815Z,18.20
2018-12-03T14:32:48.328Z,18.07
2018-12-03T14:35:16.716Z,17.86
2018-12-03T14:37:45.010Z,17.45
2018-12-03T14:40:13.518Z,17.70
2018-12-03T14:42:41.883Z,17.47
2018-12-03T14:45:11.610Z,17.49
2018-12-03T14:47:39.966Z,17.32
2018-12-03T14:50:10.101Z,18.22
2018-12-03T14:52:38.477Z,18.21
2018-12-03T14:55:07.741Z,18.30
2018-12-03T14:57:36.239Z,18.05
2018-12-03T15:00:05.347Z,18.38
2018-12-03T15:02:34.354Z,18.36
2018-12-03T15:05:02.857Z,18.83
2018-12-03T15:07:31.470Z,17.88
2018-12-03T15:09:59.998Z,17.78
2018-12-03T15:12:28.350Z,18.24
2018-12-03T15:14:56.727Z,18.59
2018-12-03T15:17:25.199Z,18.33
2018-12-03T15:19:53.839Z,17.42
2018-12-03T15:22:22.192Z,17.86
2018-12-03T15:24:50.540Z,17.77
2018-12-03T15:27:18.930Z,17.54
2018-12-03T15:29:47.302Z,17.47
2018-12-03T15:32:15.702Z,18.50
2018-12-03T15:34:44.071Z,18.02
2018-12-03T15:37:12.396Z,17.50
2018-12-03T15:39:40.746Z,17.16
2018-12-03T15:42:09.176Z,17.06
2018-12-03T15:44:37.578Z,17.74
2018-12-03T15:47:05.859Z,17.47
2018-12-03T15:49:34.247Z,17.49
2018-12-03T15:52:02.719Z,16.85
2018-12-03T15:54:31.341Z,17.57
2018-12-03T15:56:59.840Z,17.32
2018-12-03T15:59:28.193Z,17.17
2018-12-03T16:01:56.464Z,17.35
2018-12-03T16:04:24.947Z,17.58
2018-12-03T16:06:53.247Z,17.60
2018-12-03T16:09:21.543Z,18.18
2018-12-03T16:11:49.877Z,17.45
2018-12-03T16:14:18.182Z,17.57
2018-12-03T16:16:46.815Z,17.04
2018-12-03T16:19:15.159Z,17.17
2018-12-03T16:21:43.470Z,17.35
2018-12-03T16:24:11.949Z,17.02
2018-12-03T16:26:40.281Z,17.00
2018-12-03T16:29:08.646Z,17.73
2018-12-03T16:31:37.176Z,17.02
2018-12-03T16:34:05.515Z,17.30
2018-12-03T16:36:34.394Z,17.35
2018-12-03T16:39:02.750Z,16.62
2018-12-03T16:41:31.015Z,16.49
2018-12-03T16:43:59.519Z,16.92
2018-12-03T16:46:27.863Z,16.93
2018-12-03T16:48:56.294Z,16.88
2018-12-03T16:51:24.656Z,16.91
2018-12-03T16:53:53.094Z,16.83
2018-12-03T16:56:21.459Z,16.78
2018-12-03T16:58:49.793Z,17.33
2018-12-03T17:01:18.132Z,17.25
2018-12-03T17:03:46.439Z,16.91
2018-12-03T17:06:14.817Z,16.75
2018-12-03T17:08:43.125Z,17.23
2018-12-03T17:11:11.490Z,16.92
2018-12-03T17:13:39.884Z,16.66
2018-12-03T17:16:08.231Z,16.98
2018-12-03T17:18:36.632Z,16.84
2018-12-03T17:21:09.940Z,17.35
2018-12-03T17:24:45.282Z,17.06
2018-12-03T17:27:13.656Z,16.97
2018-12-03T17:29:41.952Z,16.94
2018-12-03T17:32:10.333Z,16.64
2018-12-03T17:34:38.977Z,16.88
2018-12-03T17:37:07.505Z,16.65
2018-12-03T17:39:36.167Z,16.73
2018-12-03T17:42:04.526Z,17.02
2018-12-03T17:44:33.131Z,16.91
2018-12-03T17:47:01.475Z,16.65
2018-12-03T17:49:29.834Z,17.17
2018-12-03T17:51:58.236Z,17.24
2018-12-03T17:54:26.915Z,17.22
2018-12-03T17:56:55.950Z,16.92
2018-12-03T17:59:24.412Z,16.82
2018-12-03T18:01:53.069Z,16.73
2018-12-03T18:04:21.466Z,17.26
2018-12-03T18:06:49.914Z,16.90
2018-12-03T18:09:18.336Z,16.44
2018-12-03T18:11:47.109Z,16.65
2018-12-03T18:14:15.851Z,16.59
2018-12-03T18:16:44.678Z,17.23
2018-12-03T18:19:13.201Z,17.24
2018-12-03T18:21:41.574Z,17.21
2018-12-03T18:24:10.153Z,16.77
2018-12-03T18:26:38.557Z,16.90
2018-12-03T18:29:06.945Z,16.66
2018-12-03T18:31:36.225Z,16.70
2018-12-03T18:34:04.835Z,16.29
2018-12-03T18:36:33.332Z,16.21
2018-12-03T18:39:01.862Z,16.57
2018-12-03T18:41:30.281Z,16.24
2018-12-03T18:43:58.626Z,16.46
2018-12-03T18:46:27.005Z,15.75
2018-12-03T18:49:01.793Z,15.45
2018-12-03T18:51:30.397Z,15.01
2018-12-03T18:53:58.711Z,14.93
2018-12-03T18:56:27.139Z,15.22
2018-12-03T18:58:59.934Z,15.54
2018-12-03T19:01:28.384Z,15.41
2018-12-03T19:03:56.814Z,15.33
2018-12-03T19:06:25.264Z,16.24
2018-12-03T19:08:54.106Z,16.30
2018-12-03T19:11:23.213Z,15.16
2018-12-03T19:13:55.472Z,15.68
2018-12-03T19:16:28.288Z,15.97
2018-12-03T19:18:56.880Z,16.29
2018-12-03T19:21:56.350Z,16.89
2018-12-03T19:24:24.800Z,17.58
2018-12-03T19:26:53.336Z,16.76
2018-12-03T19:29:21.760Z,17.46
2018-12-03T19:31:50.204Z,15.92
2018-12-03T19:34:18.682Z,14.96
2018-12-03T19:36:47.237Z,15.75
2018-12-03T19:39:19.570Z,15.23
2018-12-03T19:41:56.915Z,15.18
2018-12-03T19:44:37.378Z,15.31
2018-12-03T19:47:23.554Z,15.61
2018-12-03T19:49:52.144Z,15.16
2018-12-03T19:52:22.364Z,14.39
2018-12-03T19:55:10.388Z,14.42
2018-12-03T19:57:48.730Z,14.33
2018-12-03T20:00:32.035Z,14.69
2018-12-03T20:03:00.891Z,14.59
2018-12-03T20:05:49.167Z,14.22
2018-12-03T20:08:26.144Z,14.77
2018-12-03T20:11:13.490Z,14.65
2018-12-03T20:13:48.224Z,14.57
2018-12-03T20:16:36.074Z,14.84
2018-12-03T20:19:15.690Z,15.32
2018-12-03T20:24:57.168Z,15.15
2018-12-03T20:27:49.388Z,14.93
2018-12-03T20:30:37.200Z,14.63
2018-12-03T20:33:24.129Z,14.82
2018-12-03T20:38:32.732Z,14.61
2018-12-03T20:41:18.377Z,14.64
2018-12-03T20:44:11.527Z,14.27
2018-12-03T20:51:01.021Z,14.43
2018-12-03T20:54:03.082Z,14.92
2018-12-03T20:56:32.051Z,14.58
2018-12-03T20:59:00.575Z,14.29
2018-12-03T21:01:29.380Z,14.38
2018-12-03T21:03:57.778Z,14.26
2018-12-03T21:06:26.112Z,14.37
2018-12-03T21:08:54.646Z,14.18
2018-12-03T21:11:23.066Z,14.80
2018-12-03T21:13:58.151Z,14.83
2018-12-03T21:16:26.673Z,15.04
2018-12-03T21:18:55.425Z,15.30
2018-12-03T21:21:31.852Z,15.06
2018-12-03T21:24:00.200Z,15.04
2018-12-03T21:26:35.975Z,15.31
2018-12-03T21:29:04.387Z,15.66
2018-12-03T21:31:32.795Z,15.46
2018-12-03T21:34:01.398Z,15.77
2018-12-03T21:36:30.858Z,16.01
2018-12-03T21:39:04.951Z,14.88
2018-12-03T21:41:33.405Z,15.14
2018-12-03T21:44:01.774Z,15.09
2018-12-03T21:46:30.111Z,15.20
2018-12-03T21:49:09.836Z,15.20
2018-12-03T21:51:38.310Z,15.31
2018-12-03T21:54:22.735Z,15.29
2018-12-03T21:56:58.306Z,15.07
2018-12-03T21:59:26.692Z,15.28
2018-12-03T22:01:55.163Z,15.06
2018-12-03T22:04:35.943Z,14.74
2018-12-03T22:07:17.623Z,14.91
2018-12-03T22:09:54.231Z,15.30
2018-12-03T22:12:39.865Z,15.54
2018-12-03T22:15:08.759Z,15.14
2018-12-03T22:17:46.919Z,14.96
2018-12-03T22:20:29.116Z,15.64
2018-12-03T22:22:57.770Z,15.45
2018-12-03T22:25:26.100Z,15.93
2018-12-03T22:27:54.414Z,15.74
2018-12-03T22:30:22.818Z,15.16
2018-12-03T22:33:01.639Z,15.56
2018-12-03T22:35:30.124Z,15.93
2018-12-03T22:37:59.243Z,16.29
2018-12-03T22:40:27.781Z,16.26
2018-12-03T22:42:56.774Z,15.69
2018-12-03T22:45:25.150Z,16.19
2018-12-03T22:47:53.621Z,15.87
2018-12-03T22:50:22.080Z,16.24
2018-12-03T22:52:51.747Z,16.21
2018-12-03T22:55:20.122Z,16.38
2018-12-03T22:57:48.633Z,16.15
2018-12-03T23:00:22.271Z,16.63
2018-12-03T23:02:50.745Z,16.57
2018-12-03T23:05:19.261Z,15.69
2018-12-03T23:07:47.652Z,15.52
2018-12-03T23:10:18.997Z,15.46
2018-12-03T23:12:47.657Z,15.98
2018-12-03T23:15:16.359Z,15.86
2018-12-03T23:17:44.891Z,14.99
2018-12-03T23:20:13.386Z,15.09
2018-12-03T23:22:42.089Z,14.77
2018-12-03T23:25:10.484Z,14.66
2018-12-03T23:27:39.026Z,15.01
2018-12-03T23:30:09.374Z,14.73
2018-12-03T23:32:40.354Z,15.42
2018-12-03T23:35:08.758Z,15.19
2018-12-03T23:37:37.056Z,15.28
2018-12-03T23:40:05.489Z,15.54
2018-12-03T23:42:33.839Z,14.85
2018-12-03T23:45:02.286Z,15.27
2018-12-03T23:47:30.831Z,15.14
2018-12-03T23:49:59.202Z,15.71
2018-12-03T23:52:27.509Z,15.92
2018-12-03T23:54:56.078Z,16.15
2018-12-03T23:57:24.515Z,15.62
2018-12-03T23:59:52.808Z,14.95
